NCAR-RAP Real-Time Weather Data

Output produced by METARs form (24 July 2017  08:49 UTC)
found at http://weather.rap.ucar.edu/surface/
 
Conditions at: KOCF observed 24 July 2017  07:51 UTC
Temperature: 23.9°C (75°F)
Dewpoint: 23.3°C (74°F) [RH = 96%]
Pressure (altimeter): 30.01 inches Hg (1016.3 mb)
[Sea-level pressure: 1016.3 mb]
Winds: from the SSW (200 degrees) at 6 MPH (5 knots; 2.6 m/s)
Visibility: 10 or more miles (16+ km)
Ceiling: at least 12,000 feet AGL
Clouds: sky clear below 12,000 feet AGL
Present Weather:
SOME DATA ABOVE MAY BE INACCURATE!!!
"$" is an indication the sensor requires maintenance
KOCF 240751Z AUTO 20005KT 10SM CLR 24/23 A3001 RMK AO2 LTG DSNT SW RAB04E15 SLP163 P0000 T02390233 $

Conditions at: KOCF observed 24 July 2017  06:51 UTC
Temperature: 23.9°C (75°F)
Dewpoint: 23.3°C (74°F) [RH = 96%]
Pressure (altimeter): 30.02 inches Hg (1016.7 mb)
[Sea-level pressure: 1016.8 mb]
Winds: from the SSW (200 degrees) at 5 MPH (4 knots; 2.1 m/s)
Visibility: 10 or more miles (16+ km)
Ceiling: at least 12,000 feet AGL
Clouds: few clouds at 2600 feet AGL
Present Weather:
SOME DATA ABOVE MAY BE INACCURATE!!!
"$" is an indication the sensor requires maintenance
KOCF 240651Z AUTO 20004KT 10SM FEW026 24/23 A3002 RMK AO2 LTG DSNT SW AND W SLP168 T02390233 $

Conditions at: KOCF observed 24 July 2017  05:51 UTC
Temperature: 23.9°C (75°F)
Dewpoint: 23.3°C (74°F) [RH = 96%]
Pressure (altimeter): 30.03 inches Hg (1017.0 mb)
[Sea-level pressure: 1017.1 mb]
Winds: from the S (180 degrees) at 5 MPH (4 knots; 2.1 m/s)
Visibility: 10 or more miles (16+ km)
Ceiling: at least 12,000 feet AGL
Clouds: few clouds at 9500 feet AGL
Present Weather:
SOME DATA ABOVE MAY BE INACCURATE!!!
"$" is an indication the sensor requires maintenance
KOCF 240551Z AUTO 18004KT 10SM FEW095 24/23 A3003 RMK AO2 LTG DSNT W SLP171 T02390233 10256 20239 58000 $

Conditions at: KOCF observed 24 July 2017  04:51 UTC
Temperature: 23.9°C (75°F)
Dewpoint: 23.3°C (74°F) [RH = 96%]
Pressure (altimeter): 30.04 inches Hg (1017.4 mb)
[Sea-level pressure: 1017.4 mb]
Winds: from the S (170 degrees) at 3 MPH (3 knots; 1.6 m/s)
Visibility: 10 or more miles (16+ km)
Ceiling: at least 12,000 feet AGL
Clouds: few clouds at 9500 feet AGL
Present Weather:
SOME DATA ABOVE MAY BE INACCURATE!!!
"$" is an indication the sensor requires maintenance
KOCF 240451Z AUTO 17003KT 10SM FEW095 24/23 A3004 RMK AO2 SLP174 T02390233 $

Conditions at: KOCF observed 24 July 2017  03:51 UTC
Temperature: 23.9°C (75°F)
Dewpoint: 22.8°C (73°F) [RH = 94%]
Pressure (altimeter): 30.04 inches Hg (1017.4 mb)
[Sea-level pressure: 1017.4 mb]
Winds: from the S (180 degrees) at 3 MPH (3 knots; 1.6 m/s)
Visibility: 10 or more miles (16+ km)
Ceiling: at least 12,000 feet AGL
Clouds: sky clear below 12,000 feet AGL
Present Weather:
SOME DATA ABOVE MAY BE INACCURATE!!!
"$" is an indication the sensor requires maintenance
KOCF 240351Z AUTO 18003KT 10SM CLR 24/23 A3004 RMK AO2 SLP174 T02390228 $

Conditions at: KOCF observed 24 July 2017  02:51 UTC
Temperature: 23.9°C (75°F)
Dewpoint: 22.8°C (73°F) [RH = 94%]
Pressure (altimeter): 30.03 inches Hg (1017.0 mb)
[Sea-level pressure: 1017.1 mb]
Winds: calm
Visibility: 10 or more miles (16+ km)
Ceiling: at least 12,000 feet AGL
Clouds: sky clear below 12,000 feet AGL
Present Weather:
SOME DATA ABOVE MAY BE INACCURATE!!!
"$" is an indication the sensor requires maintenance
KOCF 240251Z AUTO 00000KT 10SM CLR 24/23 A3003 RMK AO2 SLP171 T02390228 53011 $

Conditions at: KOCF observed 24 July 2017  01:51 UTC
Temperature: 24.4°C (76°F)
Dewpoint: 23.3°C (74°F) [RH = 94%]
Pressure (altimeter): 30.01 inches Hg (1016.3 mb)
[Sea-level pressure: 1016.4 mb]
Winds: from the S (170 degrees) at 3 MPH (3 knots; 1.6 m/s)
Visibility: 10 or more miles (16+ km)
Ceiling: at least 12,000 feet AGL
Clouds: sky clear below 12,000 feet AGL
Present Weather:
SOME DATA ABOVE MAY BE INACCURATE!!!
"$" is an indication the sensor requires maintenance
KOCF 240151Z AUTO 17003KT 10SM CLR 24/23 A3001 RMK AO2 SLP164 T02440233 $

Conditions at: KOCF observed 24 July 2017  00:51 UTC
Temperature: 24.4°C (76°F)
Dewpoint: 23.3°C (74°F) [RH = 94%]
Pressure (altimeter): 30.00 inches Hg (1016.0 mb)
[Sea-level pressure: 1016.0 mb]
Winds: from the S (180 degrees) at 3 MPH (3 knots; 1.6 m/s)
Visibility: 9 miles (14 km)
Ceiling: at least 12,000 feet AGL
Clouds: few clouds at 200 feet AGL
Present Weather:
SOME DATA ABOVE MAY BE INACCURATE!!!
"$" is an indication the sensor requires maintenance
KOCF 240051Z AUTO 18003KT 9SM FEW002 24/23 A3000 RMK AO2 SLP160 T02440233 $

Conditions at: KOCF observed 23 July 2017  23:51 UTC
Temperature: 25.6°C (78°F)
Dewpoint: 23.3°C (74°F) [RH = 87%]
Pressure (altimeter): 30.00 inches Hg (1016.0 mb)
[Sea-level pressure: 1015.9 mb]
Winds: from the S (180 degrees) at 5 MPH (4 knots; 2.1 m/s)
Visibility: 10 or more miles (16+ km)
Ceiling: at least 12,000 feet AGL
Clouds: sky clear below 12,000 feet AGL
Present Weather:
SOME DATA ABOVE MAY BE INACCURATE!!!
"$" is an indication the sensor requires maintenance
KOCF 232351Z AUTO 18004KT 10SM CLR 26/23 A3000 RMK AO2 SLP159 6//// T02560233 10267 20250 402670239 56010 $

Conditions at: KOCF observed 23 July 2017  22:51 UTC
Temperature: 26.1°C (79°F)
Dewpoint: 23.3°C (74°F) [RH = 85%]
Pressure (altimeter): 30.00 inches Hg (1016.0 mb)
[Sea-level pressure: 1015.9 mb]
Winds: from the S (180 degrees) at 6 MPH (5 knots; 2.6 m/s)
Visibility: 10 or more miles (16+ km)
Ceiling: at least 12,000 feet AGL
Clouds: sky clear below 12,000 feet AGL
Present Weather:
SOME DATA ABOVE MAY BE INACCURATE!!!
"$" is an indication the sensor requires maintenance
KOCF 232251Z 18005KT 10SM CLR 26/23 A3000 RMK AO2 SLP159 T02610233 $

Conditions at: KOCF observed 23 July 2017  21:51 UTC
Temperature: 26.1°C (79°F)
Dewpoint: 22.8°C (73°F) [RH = 82%]
Pressure (altimeter): 30.00 inches Hg (1016.0 mb)
[Sea-level pressure: 1016.0 mb]
Winds: from the S (180 degrees) at 10 MPH (9 knots; 4.7 m/s)
Visibility: 10 or more miles (16+ km)
Ceiling: at least 12,000 feet AGL
Clouds: sky clear below 12,000 feet AGL
Present Weather:
SOME DATA ABOVE MAY BE INACCURATE!!!
"$" is an indication the sensor requires maintenance
KOCF 232151Z 18009KT 10SM CLR 26/23 A3000 RMK AO2 SLP160 T02610228 $

Conditions at: KOCF observed 23 July 2017  20:51 UTC
Temperature: 26.1°C (79°F)
Dewpoint: 23.3°C (74°F) [RH = 85%]
Pressure (altimeter): 30.02 inches Hg (1016.7 mb)
[Sea-level pressure: 1016.9 mb]
Winds: from the SSW (200 degrees) at 8 MPH (7 knots; 3.6 m/s)
Visibility: 10 or more miles (16+ km)
Ceiling: at least 12,000 feet AGL
Clouds: sky clear below 12,000 feet AGL
Present Weather:
SOME DATA ABOVE MAY BE INACCURATE!!!
"$" is an indication the sensor requires maintenance
KOCF 232051Z 20007KT 10SM CLR 26/23 A3002 RMK AO2 RAB1954E26 SLP169 P0000 60000 T02610233 56009 $

Conditions at: KOCF observed 23 July 2017  19:51 UTC
Temperature: 26.1°C (79°F)
Dewpoint: 22.8°C (73°F) [RH = 82%]
Pressure (altimeter): 30.04 inches Hg (1017.4 mb)
[Sea-level pressure: 1017.3 mb]
Winds: from the WSW (240 degrees) at 9 MPH (8 knots; 4.2 m/s)
Visibility: 10 or more miles (16+ km)
Ceiling: at least 12,000 feet AGL
Clouds: sky clear below 12,000 feet AGL
Present Weather:
SOME DATA ABOVE MAY BE INACCURATE!!!
"$" is an indication the sensor requires maintenance
KOCF 231951Z 24008KT 10SM CLR 26/23 A3004 RMK AO2 SLP173 T02610228 $

Conditions at: KOCF observed 23 July 2017  18:51 UTC
Temperature: 25.6°C (78°F)
Dewpoint: 23.3°C (74°F) [RH = 87%]
Pressure (altimeter): 30.05 inches Hg (1017.7 mb)
[Sea-level pressure: 1017.7 mb]
Winds: from the WSW (240 degrees) at 10 MPH (9 knots; 4.7 m/s)
Visibility: 10 or more miles (16+ km)
Ceiling: 1200 feet AGL
Clouds: broken clouds at 1200 feet AGL
Present Weather:
SOME DATA ABOVE MAY BE INACCURATE!!!
"$" is an indication the sensor requires maintenance
KOCF 231851Z 24009KT 10SM BKN012 26/23 A3005 RMK AO2 SLP177 T02560233 $

Conditions at: KOCF observed 23 July 2017  18:14 UTC
Temperature: 25.0°C (77°F)
Dewpoint: 23.0°C (73°F) [RH = 89%]
Pressure (altimeter): 30.06 inches Hg (1018.0 mb)
Winds: from the SW (230 degrees) at 9 MPH (8 knots; 4.2 m/s)
Visibility: 10 or more miles (16+ km)
Ceiling: 1200 feet AGL
Clouds: broken clouds at 1200 feet AGL
Present Weather:
SOME DATA ABOVE MAY BE INACCURATE!!!
"$" is an indication the sensor requires maintenance
KOCF 231814Z 23008KT 10SM BKN012 25/23 A3006 RMK AO2 $

Conditions at: KOCF observed 23 July 2017  17:51 UTC
Temperature: 25.0°C (77°F)
Dewpoint: 22.8°C (73°F) [RH = 88%]
Pressure (altimeter): 30.06 inches Hg (1018.0 mb)
[Sea-level pressure: 1017.9 mb]
Winds: from the SSW (200 degrees) at 12 MPH (10 knots; 5.2 m/s)
Visibility: 10 or more miles (16+ km)
Ceiling: at least 12,000 feet AGL
Clouds: sky clear below 12,000 feet AGL
Present Weather:
SOME DATA ABOVE MAY BE INACCURATE!!!
"$" is an indication the sensor requires maintenance
KOCF 231751Z 20010KT 10SM CLR 25/23 A3006 RMK AO2 SLP179 60011 T02500228 10256 20239 58006 $

Conditions at: KOCF observed 23 July 2017  16:51 UTC
Temperature: 25.0°C (77°F)
Dewpoint: 22.2°C (72°F) [RH = 84%]
Pressure (altimeter): 30.09 inches Hg (1019.0 mb)
[Sea-level pressure: 1019.1 mb]
Winds: from the SW (220 degrees) at 13 MPH (11 knots; 5.7 m/s)
Visibility: 10 or more miles (16+ km)
Ceiling: at least 12,000 feet AGL
Clouds: sky clear below 12,000 feet AGL
Present Weather:
SOME DATA ABOVE MAY BE INACCURATE!!!
"$" is an indication the sensor requires maintenance
KOCF 231651Z 22011KT 10SM CLR 25/22 A3009 RMK AO2 SLP191 T02500222 $

Conditions at: KOCF observed 23 July 2017  16:15 UTC
Temperature: 25.0°C (77°F)
Dewpoint: 23.0°C (73°F) [RH = 89%]
Pressure (altimeter): 30.10 inches Hg (1019.4 mb)
Winds: from the SSW (210 degrees) at 13 MPH (11 knots; 5.7 m/s)
Visibility: 10 or more miles (16+ km)
Ceiling: at least 12,000 feet AGL
Clouds: few clouds at 800 feet AGL
scattered clouds at 1400 feet AGL
Present Weather:
SOME DATA ABOVE MAY BE INACCURATE!!!
"$" is an indication the sensor requires maintenance
KOCF 231615Z 21011KT 10SM FEW008 SCT014 25/23 A3010 RMK AO2 $

Conditions at: KOCF observed 23 July 2017  15:51 UTC
Temperature: 24.4°C (76°F)
Dewpoint: 23.3°C (74°F) [RH = 94%]
Pressure (altimeter): 30.09 inches Hg (1019.0 mb)
[Sea-level pressure: 1019.2 mb]
Winds: from the SSW (210 degrees) at 10 MPH (9 knots; 4.7 m/s)
Visibility: 10 or more miles (16+ km)
Ceiling: 1100 feet AGL
Clouds: overcast cloud deck at 1100 feet AGL
Present Weather:
SOME DATA ABOVE MAY BE INACCURATE!!!
"$" is an indication the sensor requires maintenance
KOCF 231551Z 21009KT 10SM OVC011 24/23 A3009 RMK AO2 LTG DSNT E SLP192 T02440233 $

Conditions at: KOCF observed 23 July 2017  15:26 UTC
Temperature: 25.0°C (77°F)
Dewpoint: 23.0°C (73°F) [RH = 89%]
Pressure (altimeter): 30.09 inches Hg (1019.0 mb)
Winds: from the SSW (210 degrees) at 10 MPH (9 knots; 4.7 m/s)
Visibility: 10 or more miles (16+ km)
Ceiling: 1000 feet AGL
Clouds: overcast cloud deck at 1000 feet AGL
Present Weather:
SOME DATA ABOVE MAY BE INACCURATE!!!
"$" is an indication the sensor requires maintenance
KOCF 231526Z 21009KT 10SM OVC010 25/23 A3009 RMK AO2 LTG DSNT E CIG 005V015 $

Conditions at: KOCF observed 23 July 2017  14:51 UTC
Temperature: 24.4°C (76°F)
Dewpoint: 23.3°C (74°F) [RH = 94%]
Pressure (altimeter): 30.07 inches Hg (1018.4 mb)
[Sea-level pressure: 1018.5 mb]
Winds: from the WSW (240 degrees) at 3 MPH (3 knots; 1.6 m/s)
Visibility: 10 or more miles (16+ km)
Ceiling: 800 feet AGL
Clouds: broken clouds at 800 feet AGL
broken clouds at 3400 feet AGL
Present Weather:
SOME DATA ABOVE MAY BE INACCURATE!!!
"$" is an indication the sensor requires maintenance
KOCF 231451Z 24003KT 10SM BKN008 BKN034 24/23 A3007 RMK AO2 LTG DSNT NE AND E CIG 006V010 SLP185 P0004 60011 T02440233 51003 $

Conditions at: KOCF observed 23 July 2017  14:49 UTC
Temperature: 24.0°C (75°F)
Dewpoint: 23.0°C (73°F) [RH = 94%]
Pressure (altimeter): 30.07 inches Hg (1018.4 mb)
Winds: from the WSW (240 degrees) at 3 MPH (3 knots; 1.6 m/s)
Visibility: 10 or more miles (16+ km)
Ceiling: 800 feet AGL
Clouds: broken clouds at 800 feet AGL
broken clouds at 3200 feet AGL
Present Weather:
SOME DATA ABOVE MAY BE INACCURATE!!!
"$" is an indication the sensor requires maintenance
KOCF 231449Z 24003KT 10SM BKN008 BKN032 24/23 A3007 RMK AO2 LTG DSNT NE AND E CIG 006V010 P0004 $

Conditions at: KOCF observed 23 July 2017  14:41 UTC
Temperature: 24.0°C (75°F)
Dewpoint: 23.0°C (73°F) [RH = 94%]
Pressure (altimeter): 30.07 inches Hg (1018.4 mb)
Winds: calm
Visibility: 10 or more miles (16+ km)
Ceiling: 1200 feet AGL
Clouds: scattered clouds at 800 feet AGL
broken clouds at 1200 feet AGL
broken clouds at 3200 feet AGL
Present Weather:
SOME DATA ABOVE MAY BE INACCURATE!!!
"$" is an indication the sensor requires maintenance
KOCF 231441Z 00000KT 10SM SCT008 BKN012 BKN032 24/23 A3007 RMK AO2 LTG DSNT NE AND E P0004 $

Conditions at: KOCF observed 23 July 2017  14:05 UTC
Temperature: 24.0°C (75°F)
Dewpoint: 24.0°C (75°F) [RH = 100%]
Pressure (altimeter): 30.07 inches Hg (1018.4 mb)
Winds: from the SW (220 degrees) at 7 MPH (6 knots; 3.1 m/s)
Visibility: 10 or more miles (16+ km)
Ceiling: 2300 feet AGL
Clouds: few clouds at 400 feet AGL
scattered clouds at 1800 feet AGL
overcast cloud deck at 2300 feet AGL
Present Weather:
SOME DATA ABOVE MAY BE INACCURATE!!!
"$" is an indication the sensor requires maintenance
KOCF 231405Z 22006KT 10SM FEW004 SCT018 OVC023 24/24 A3007 RMK AO2 LTG DSNT NE AND E $

Conditions at: KOCF observed 23 July 2017  13:51 UTC
Temperature: 24.4°C (76°F)
Dewpoint: 23.3°C (74°F) [RH = 94%]
Pressure (altimeter): 30.07 inches Hg (1018.4 mb)
[Sea-level pressure: 1018.4 mb]
Winds: from the W (280 degrees) at 3 MPH (3 knots; 1.6 m/s)
Visibility: 10 or more miles (16+ km)
Ceiling: 1300 feet AGL
Clouds: scattered clouds at 400 feet AGL
broken clouds at 1300 feet AGL
overcast cloud deck at 2100 feet AGL
Present Weather:
SOME DATA ABOVE MAY BE INACCURATE!!!
"$" is an indication the sensor requires maintenance
KOCF 231351Z 28003KT 10SM SCT004 BKN013 OVC021 24/23 A3007 RMK AO2 LTG DSNT NE AND E SLP184 P0007 T02440233 $

Conditions at: KOCF observed 23 July 2017  13:42 UTC
Temperature: 24.0°C (75°F)
Dewpoint: 24.0°C (75°F) [RH = 100%]
Pressure (altimeter): 30.07 inches Hg (1018.4 mb)
Winds: from the WSW (240 degrees) at 8 MPH (7 knots; 3.6 m/s)
Visibility: 9 miles (14 km)
Ceiling: 400 feet AGL
Clouds: broken clouds at 400 feet AGL
overcast cloud deck at 1100 feet AGL
Present Weather:
SOME DATA ABOVE MAY BE INACCURATE!!!
"$" is an indication the sensor requires maintenance
KOCF 231342Z 24007KT 9SM BKN004 OVC011 24/24 A3007 RMK AO2 LTG DSNT NE AND E CIG 003V008 P0006 $

Conditions at: KOCF observed 23 July 2017  13:22 UTC
Temperature: 25.0°C (77°F)
Dewpoint: 24.0°C (75°F) [RH = 94%]
Pressure (altimeter): 30.06 inches Hg (1018.0 mb)
Winds: from the SSW (200 degrees) at 9 MPH (8 knots; 4.2 m/s)
Visibility: 6 miles (10 km)
Ceiling: 600 feet AGL
Clouds: broken clouds at 600 feet AGL
broken clouds at 1100 feet AGL
overcast cloud deck at 1400 feet AGL
Present Weather: BR  (mist)
SOME DATA ABOVE MAY BE INACCURATE!!!
"$" is an indication the sensor requires maintenance
KOCF 231322Z 20008KT 6SM BR BKN006 BKN011 OVC014 25/24 A3006 RMK AO2 CIG 003V007 P0006 $

Conditions at: KOCF observed 23 July 2017  13:03 UTC
Temperature: 25.0°C (77°F)
Dewpoint: 24.0°C (75°F) [RH = 94%]
Pressure (altimeter): 30.06 inches Hg (1018.0 mb)
Winds: from the SSW (200 degrees) at 6 MPH (5 knots; 2.6 m/s)
Visibility: 10 or more miles (16+ km)
Ceiling: 1200 feet AGL
Clouds: scattered clouds at 900 feet AGL
broken clouds at 1200 feet AGL
Present Weather:
SOME DATA ABOVE MAY BE INACCURATE!!!
"$" is an indication the sensor requires maintenance
KOCF 231303Z 20005KT 10SM SCT009 BKN012 25/24 A3006 RMK AO2 LTG DSNT S $

Conditions at: KOCF observed 23 July 2017  12:51 UTC
Temperature: 25.0°C (77°F)
Dewpoint: 24.4°C (76°F) [RH = 96%]
Pressure (altimeter): 30.06 inches Hg (1018.0 mb)
[Sea-level pressure: 1018.2 mb]
Winds: from the SSW (200 degrees) at 6 MPH (5 knots; 2.6 m/s)
Visibility: 10 or more miles (16+ km)
Ceiling: at least 12,000 feet AGL
Clouds: scattered clouds at 600 feet AGL
Present Weather:
SOME DATA ABOVE MAY BE INACCURATE!!!
"$" is an indication the sensor requires maintenance
KOCF 231251Z 20005KT 10SM SCT006 25/24 A3006 RMK AO2 LTG DSNT S SLP182 T02500244 $

Conditions at: KOCF observed 23 July 2017  12:47 UTC
Temperature: 25.0°C (77°F)
Dewpoint: 24.0°C (75°F) [RH = 94%]
Pressure (altimeter): 30.06 inches Hg (1018.0 mb)
Winds: from the SSW (200 degrees) at 3 MPH (3 knots; 1.6 m/s)
Visibility: 10 or more miles (16+ km)
Ceiling: at least 12,000 feet AGL
Clouds: few clouds at 600 feet AGL
Present Weather:
SOME DATA ABOVE MAY BE INACCURATE!!!
"$" is an indication the sensor requires maintenance
KOCF 231247Z 20003KT 10SM FEW006 25/24 A3006 RMK AO2 $

Conditions at: KOCF observed 23 July 2017  11:51 UTC
Temperature: 24.4°C (76°F)
Dewpoint: 23.9°C (75°F) [RH = 97%]
Pressure (altimeter): 30.05 inches Hg (1017.7 mb)
[Sea-level pressure: 1017.7 mb]
Winds: calm
Visibility: 10 or more miles (16+ km)
Ceiling: at least 12,000 feet AGL
Clouds: scattered clouds at 1900 feet AGL
Present Weather:
SOME DATA ABOVE MAY BE INACCURATE!!!
"$" is an indication the sensor requires maintenance
KOCF 231151Z 00000KT 10SM SCT019 24/24 A3005 RMK AO2 SLP177 6//// 7//// T02440239 10244 20239 53008 $

Conditions at: KOCF observed 23 July 2017  11:39 UTC
Temperature: 24.0°C (75°F)
Dewpoint: 24.0°C (75°F) [RH = 100%]
Pressure (altimeter): 30.05 inches Hg (1017.7 mb)
Winds: calm
Visibility: 10 or more miles (16+ km)
Ceiling: at least 12,000 feet AGL
Clouds: scattered clouds at 1900 feet AGL
Present Weather:
SOME DATA ABOVE MAY BE INACCURATE!!!
"$" is an indication the sensor requires maintenance
KOCF 231139Z 00000KT 10SM SCT019 24/24 A3005 RMK AO2 LTG DSNT SW AND W $

Conditions at: KOCF observed 23 July 2017  11:27 UTC
Temperature: 24.0°C (75°F)
Dewpoint: 24.0°C (75°F) [RH = 100%]
Pressure (altimeter): 30.04 inches Hg (1017.4 mb)
Winds: calm
Visibility: 10 or more miles (16+ km)
Ceiling: 1900 feet AGL
Clouds: broken clouds at 1900 feet AGL
broken clouds at 3500 feet AGL
Present Weather:
SOME DATA ABOVE MAY BE INACCURATE!!!
"$" is an indication the sensor requires maintenance
KOCF 231127Z 00000KT 10SM BKN019 BKN035 24/24 A3004 RMK AO2 LTG DSNT W $

Conditions at: KOCF observed 23 July 2017  10:51 UTC
Temperature: 24.4°C (76°F)
Dewpoint: 23.9°C (75°F) [RH = 97%]
Pressure (altimeter): 30.02 inches Hg (1016.7 mb)
[Sea-level pressure: 1016.8 mb]
Winds: calm
Visibility: 10 or more miles (16+ km)
Ceiling: at least 12,000 feet AGL
Clouds: scattered clouds at 600 feet AGL
Present Weather:
SOME DATA ABOVE MAY BE INACCURATE!!!
"$" is an indication the sensor requires maintenance
KOCF 231051Z 00000KT 10SM SCT006 24/24 A3002 RMK AO2 LTG DSNT SW AND W SLP168 T02440239 $

Conditions at: KOCF observed 23 July 2017  10:44 UTC
Temperature: 24.0°C (75°F)
Dewpoint: 24.0°C (75°F) [RH = 100%]
Pressure (altimeter): 30.02 inches Hg (1016.7 mb)
Winds: from the SSW (200 degrees) at 3 MPH (3 knots; 1.6 m/s)
Visibility: 10 or more miles (16+ km)
Ceiling: at least 12,000 feet AGL
Clouds: scattered clouds at 600 feet AGL
Present Weather:
SOME DATA ABOVE MAY BE INACCURATE!!!
"$" is an indication the sensor requires maintenance
KOCF 231044Z AUTO 20003KT 10SM SCT006 24/24 A3002 RMK AO2 LTG DSNT SW AND W $

Conditions at: KOCF observed 23 July 2017  09:59 UTC
Temperature: 24.0°C (75°F)
Dewpoint: 24.0°C (75°F) [RH = 100%]
Pressure (altimeter): 30.03 inches Hg (1017.0 mb)
Winds: calm
Visibility: 9 miles (14 km)
Ceiling: 600 feet AGL
Clouds: broken clouds at 600 feet AGL
Present Weather:
SOME DATA ABOVE MAY BE INACCURATE!!!
"$" is an indication the sensor requires maintenance
KOCF 230959Z AUTO 00000KT 9SM BKN006 24/24 A3003 RMK AO2 $

Conditions at: KOCF observed 23 July 2017  09:51 UTC
Temperature: 24.4°C (76°F)
Dewpoint: 23.9°C (75°F) [RH = 97%]
Pressure (altimeter): 30.03 inches Hg (1017.0 mb)
[Sea-level pressure: 1016.9 mb]
Winds: from the NNW (330 degrees) at 3 MPH (3 knots; 1.6 m/s)
Visibility: 9 miles (14 km)
Ceiling: at least 12,000 feet AGL
Clouds: scattered clouds at 600 feet AGL
Present Weather:
SOME DATA ABOVE MAY BE INACCURATE!!!
"$" is an indication the sensor requires maintenance
KOCF 230951Z AUTO 33003KT 9SM SCT006 24/24 A3003 RMK AO2 SLP169 T02440239 $

Conditions at: KOCF observed 23 July 2017  08:51 UTC
Temperature: 23.9°C (75°F)
Dewpoint: 23.9°C (75°F) [RH = 100%]
Pressure (altimeter): 30.01 inches Hg (1016.3 mb)
[Sea-level pressure: 1016.5 mb]
Winds: calm
Visibility: 3 miles (5 km)
Ceiling: at least 12,000 feet AGL
Clouds: sky clear below 12,000 feet AGL
Present Weather: BR  (mist)
SOME DATA ABOVE MAY BE INACCURATE!!!
"$" is an indication the sensor requires maintenance
KOCF 230851Z AUTO 00000KT 3SM BR CLR 24/24 A3001 RMK AO2 LTG DSNT N SLP165 6//// T02390239 56012 $

Conditions at: KOCF observed 23 July 2017  07:51 UTC
Temperature: 24.4°C (76°F)
Dewpoint: 23.9°C (75°F) [RH = 97%]
Pressure (altimeter): 30.02 inches Hg (1016.7 mb)
[Sea-level pressure: 1016.5 mb]
Winds: calm
Visibility: 10 or more miles (16+ km)
Ceiling: at least 12,000 feet AGL
Clouds: sky clear below 12,000 feet AGL
Present Weather:
SOME DATA ABOVE MAY BE INACCURATE!!!
"$" is an indication the sensor requires maintenance
KOCF 230751Z AUTO 00000KT 10SM CLR 24/24 A3002 RMK AO2 LTG DSNT NW SLP165 T02440239 $

Conditions at: KOCF observed 23 July 2017  06:51 UTC
Temperature: 24.4°C (76°F)
Dewpoint: 23.9°C (75°F) [RH = 97%]
Pressure (altimeter): 30.03 inches Hg (1017.0 mb)
[Sea-level pressure: 1017.1 mb]
Winds: from the SSW (200 degrees) at 6 MPH (5 knots; 2.6 m/s)
Visibility: 10 or more miles (16+ km)
Ceiling: at least 12,000 feet AGL
Clouds: sky clear below 12,000 feet AGL
Present Weather:
SOME DATA ABOVE MAY BE INACCURATE!!!
"$" is an indication the sensor requires maintenance
KOCF 230651Z AUTO 20005KT 10SM CLR 24/24 A3003 RMK AO2 SLP171 T02440239 $

Conditions at: KOCF observed 23 July 2017  05:51 UTC
Temperature: 24.4°C (76°F)
Dewpoint: 23.9°C (75°F) [RH = 97%]
Pressure (altimeter): 30.05 inches Hg (1017.7 mb)
[Sea-level pressure: 1017.7 mb]
Winds: from the S (180 degrees) at 6 MPH (5 knots; 2.6 m/s)
Visibility: 10 or more miles (16+ km)
Ceiling: at least 12,000 feet AGL
Clouds: sky clear below 12,000 feet AGL
Present Weather:
SOME DATA ABOVE MAY BE INACCURATE!!!
"$" is an indication the sensor requires maintenance
KOCF 230551Z AUTO 18005KT 10SM CLR 24/24 A3005 RMK AO2 SLP177 T02440239 10250 20244 58003 $

Conditions at: KOCF observed 23 July 2017  04:51 UTC
Temperature: 24.4°C (76°F)
Dewpoint: 23.9°C (75°F) [RH = 97%]
Pressure (altimeter): 30.06 inches Hg (1018.0 mb)
[Sea-level pressure: 1018.0 mb]
Winds: from the S (180 degrees) at 5 MPH (4 knots; 2.1 m/s)
Visibility: 10 or more miles (16+ km)
Ceiling: at least 12,000 feet AGL
Clouds: sky clear below 12,000 feet AGL
Present Weather:
SOME DATA ABOVE MAY BE INACCURATE!!!
"$" is an indication the sensor requires maintenance
KOCF 230451Z AUTO 18004KT 10SM CLR 24/24 A3006 RMK AO2 SLP180 T02440239 $

Conditions at: KOCF observed 23 July 2017  03:51 UTC
Temperature: 24.4°C (76°F)
Dewpoint: 23.9°C (75°F) [RH = 97%]
Pressure (altimeter): 30.06 inches Hg (1018.0 mb)
[Sea-level pressure: 1018.1 mb]
Winds: from the SSE (150 degrees) at 3 MPH (3 knots; 1.6 m/s)
Visibility: 10 or more miles (16+ km)
Ceiling: at least 12,000 feet AGL
Clouds: sky clear below 12,000 feet AGL
Present Weather:
SOME DATA ABOVE MAY BE INACCURATE!!!
"$" is an indication the sensor requires maintenance
KOCF 230351Z AUTO 15003KT 10SM CLR 24/24 A3006 RMK AO2 SLP181 T02440239 $

Conditions at: KOCF observed 23 July 2017  02:51 UTC
Temperature: 24.4°C (76°F)
Dewpoint: 23.9°C (75°F) [RH = 97%]
Pressure (altimeter): 30.06 inches Hg (1018.0 mb)
[Sea-level pressure: 1018.0 mb]
Winds: calm
Visibility: 10 or more miles (16+ km)
Ceiling: at least 12,000 feet AGL
Clouds: few clouds at 700 feet AGL
Present Weather:
SOME DATA ABOVE MAY BE INACCURATE!!!
"$" is an indication the sensor requires maintenance
KOCF 230251Z AUTO 00000KT 10SM FEW007 24/24 A3006 RMK AO2 SLP180 T02440239 53009 $

Conditions at: KOCF observed 23 July 2017  02:36 UTC
Temperature: 24.0°C (75°F)
Dewpoint: 24.0°C (75°F) [RH = 100%]
Pressure (altimeter): 30.06 inches Hg (1018.0 mb)
Winds: calm
Visibility: 10 or more miles (16+ km)
Ceiling: at least 12,000 feet AGL
Clouds: scattered clouds at 700 feet AGL
Present Weather:
SOME DATA ABOVE MAY BE INACCURATE!!!
"$" is an indication the sensor requires maintenance
KOCF 230236Z AUTO 00000KT 10SM SCT007 24/24 A3006 RMK AO2 $

Conditions at: KOCF observed 23 July 2017  01:51 UTC
Temperature: 25.0°C (77°F)
Dewpoint: 23.9°C (75°F) [RH = 94%]
Pressure (altimeter): 30.04 inches Hg (1017.4 mb)
[Sea-level pressure: 1017.5 mb]
Winds: calm
Visibility: 10 or more miles (16+ km)
Ceiling: at least 12,000 feet AGL
Clouds: sky clear below 12,000 feet AGL
Present Weather:
SOME DATA ABOVE MAY BE INACCURATE!!!
"$" is an indication the sensor requires maintenance
KOCF 230151Z AUTO 00000KT 10SM CLR 25/24 A3004 RMK AO2 SLP175 T02500239 $

Conditions at: KOCF observed 23 July 2017  00:51 UTC
Temperature: 25.0°C (77°F)
Dewpoint: 23.9°C (75°F) [RH = 94%]
Pressure (altimeter): 30.03 inches Hg (1017.0 mb)
[Sea-level pressure: 1016.9 mb]
Winds: from the S (190 degrees) at 6 MPH (5 knots; 2.6 m/s)
Visibility: 10 or more miles (16+ km)
Ceiling: at least 12,000 feet AGL
Clouds: sky clear below 12,000 feet AGL
Present Weather:
SOME DATA ABOVE MAY BE INACCURATE!!!
"$" is an indication the sensor requires maintenance
KOCF 230051Z AUTO 19005KT 10SM CLR 25/24 A3003 RMK AO2 SLP169 T02500239 $

Conditions at: KOCF observed 22 July 2017  23:51 UTC
Temperature: 25.0°C (77°F)
Dewpoint: 24.4°C (76°F) [RH = 96%]
Pressure (altimeter): 30.03 inches Hg (1017.0 mb)
[Sea-level pressure: 1017.1 mb]
Winds: from the S (180 degrees) at 5 MPH (4 knots; 2.1 m/s)
Visibility: 10 or more miles (16+ km)
Ceiling: at least 12,000 feet AGL
Clouds: sky clear below 12,000 feet AGL
Present Weather:
SOME DATA ABOVE MAY BE INACCURATE!!!
"$" is an indication the sensor requires maintenance
KOCF 222351Z AUTO 18004KT 10SM CLR 25/24 A3003 RMK AO2 SLP171 60002 T02500244 10250 20244 403060222 58008 $

Conditions at: KOCF observed 22 July 2017  22:51 UTC
Temperature: 25.0°C (77°F)
Dewpoint: 24.4°C (76°F) [RH = 96%]
Pressure (altimeter): 30.06 inches Hg (1018.0 mb)
[Sea-level pressure: 1017.9 mb]
Winds: calm
Visibility: 10 or more miles (16+ km)
Ceiling: at least 12,000 feet AGL
Clouds: few clouds at 700 feet AGL
Present Weather:
SOME DATA ABOVE MAY BE INACCURATE!!!
"$" is an indication the sensor requires maintenance
KOCF 222251Z COR 00000KT 10SM FEW007 25/24 A3006 RMK AO2 RAE2152 SLP179 T02500244 $

Conditions at: KOCF observed 22 July 2017  21:51 UTC
Temperature: 25.0°C (77°F)
Dewpoint: 24.4°C (76°F) [RH = 96%]
Pressure (altimeter): 30.06 inches Hg (1018.0 mb)
[Sea-level pressure: 1018.1 mb]
Winds: calm
Visibility: 10 or more miles (16+ km)
Ceiling: at least 12,000 feet AGL
Clouds: scattered clouds at 4000 feet AGL
Present Weather: -RA  (light rain)
SOME DATA ABOVE MAY BE INACCURATE!!!
"$" is an indication the sensor requires maintenance
KOCF 222151Z COR 00000KT 10SM -RA SCT040 25/24 A3006 RMK AO2 RAE2059B43 SLP181 P0000 T02500244 $

Conditions at: KOCF observed 22 July 2017  20:51 UTC
Temperature: 25.0°C (77°F)
Dewpoint: 23.9°C (75°F) [RH = 94%]
Pressure (altimeter): 30.05 inches Hg (1017.7 mb)
[Sea-level pressure: 1017.9 mb]
Winds: from the ESE (120 degrees) at 3 MPH (3 knots; 1.6 m/s)
Visibility: 10 or more miles (16+ km)
Ceiling: at least 12,000 feet AGL
Clouds: scattered clouds at 4000 feet AGL
Present Weather: -RA  (light rain)
SOME DATA ABOVE MAY BE INACCURATE!!!
"$" is an indication the sensor requires maintenance
KOCF 222051Z 12003KT 10SM -RA SCT040 25/24 A3005 RMK AO2 RAB1952 SLP179 P0001 60002 T02500239 55012 $

Conditions at: KOCF observed 22 July 2017  18:51 UTC
Temperature: 24.4°C (76°F)
Dewpoint: 22.8°C (73°F) [RH = 91%]
Pressure (altimeter): 30.09 inches Hg (1019.0 mb)
[Sea-level pressure: 1019.1 mb]
Winds: calm
Visibility: 10 or more miles (16+ km)
Ceiling: 4100 feet AGL
Clouds: scattered clouds at 3400 feet AGL
broken clouds at 4100 feet AGL
broken clouds at 4800 feet AGL
Present Weather: -RA  (light rain)
SOME DATA ABOVE MAY BE INACCURATE!!!
"$" is an indication the sensor requires maintenance
KOCF 221851Z 00000KT 10SM -RA SCT034 BKN041 BKN048 24/23 A3009 RMK AO2 LTG DSNT N-SE TSE27B29E44RAE1756B19 SLP191 P0001 T02440228 $

Conditions at: KOCF observed 22 July 2017  18:29 UTC
Temperature: 24.0°C (75°F)
Dewpoint: 23.0°C (73°F) [RH = 94%]
Pressure (altimeter): 30.09 inches Hg (1019.0 mb)
Winds: from the SSW (200 degrees) at 5 MPH (4 knots; 2.1 m/s)
Visibility: 10 or more miles (16+ km)
Ceiling: 11000 feet AGL
Clouds: few clouds at 3300 feet AGL
scattered clouds at 5000 feet AGL
overcast cloud deck at 11000 feet AGL
Present Weather: VCTS -RA  (thunderstorm in vicinity, light rain)
SOME DATA ABOVE MAY BE INACCURATE!!!
"$" is an indication the sensor requires maintenance
KOCF 221829Z 20004KT 10SM VCTS -RA FEW033 SCT050 OVC110 24/23 A3009 RMK AO2 LTG DSNT ALQDS TSE27B29RAE1756B19 P0000 $

Conditions at: KOCF observed 22 July 2017  17:51 UTC
Temperature: 24.4°C (76°F)
Dewpoint: 22.8°C (73°F) [RH = 91%]
Pressure (altimeter): 30.08 inches Hg (1018.7 mb)
[Sea-level pressure: 1018.9 mb]
Winds: from the SSW (200 degrees) at 10 MPH (9 knots; 4.7 m/s)
Visibility: 10 or more miles (16+ km)
Ceiling: 6000 feet AGL
Clouds: few clouds at 2000 feet AGL
broken clouds at 6000 feet AGL
broken clouds at 9000 feet AGL
Present Weather: VCTS -RA  (thunderstorm in vicinity, light rain)
SOME DATA ABOVE MAY BE INACCURATE!!!
"$" is an indication the sensor requires maintenance
KOCF 221751Z 20009KT 10SM VCTS -RA FEW020 BKN060 BKN090 24/23 A3008 RMK AO2 LTG DSNT ALQDS TSE12B13RAB1659 SLP189 P0004 60004 T02440228 10306 20239 57003 $

Conditions at: KOCF observed 22 July 2017  17:13 UTC
Temperature: 26.0°C (79°F)
Dewpoint: 24.0°C (75°F) [RH = 89%]
Pressure (altimeter): 30.07 inches Hg (1018.4 mb)
Winds: from the SSW (200 degrees) at 10 MPH (9 knots; 4.7 m/s)
Visibility: 10 or more miles (16+ km)
Ceiling: at least 12,000 feet AGL
Clouds: few clouds at 1600 feet AGL
scattered clouds at 2800 feet AGL
scattered clouds at 3500 feet AGL
Present Weather: -TSRA  (light rain associated with thunderstorm(s))
SOME DATA ABOVE MAY BE INACCURATE!!!
"$" is an indication the sensor requires maintenance
KOCF 221713Z 20009KT 10SM -TSRA FEW016 SCT028 SCT035 26/24 A3007 RMK AO2 LTG DSNT ALQDS TSE12B13RAB1659 P0001 $

Conditions at: KOCF observed 22 July 2017  16:51 UTC
Temperature: 28.3°C (83°F)
Dewpoint: 24.4°C (76°F) [RH = 79%]
Pressure (altimeter): 30.09 inches Hg (1019.0 mb)
[Sea-level pressure: 1018.9 mb]
Winds: from the S (190 degrees) at 8 MPH (7 knots; 3.6 m/s)
Visibility: 10 or more miles (16+ km)
Ceiling: 3400 feet AGL
Clouds: broken clouds at 3400 feet AGL
Present Weather: TS  (thunderstorm)
SOME DATA ABOVE MAY BE INACCURATE!!!
"$" is an indication the sensor requires maintenance
KOCF 221651Z 19007KT 10SM TS BKN034 28/24 A3009 RMK AO2 LTG DSNT NE-S TSB04E47B50 SLP189 T02830244 $

Conditions at: KOCF observed 22 July 2017  16:10 UTC
Temperature: 28.0°C (82°F)
Dewpoint: 24.0°C (75°F) [RH = 79%]
Pressure (altimeter): 30.09 inches Hg (1019.0 mb)
Winds: from the S (190 degrees) at 8 MPH (7 knots; 3.6 m/s)
Visibility: 9 miles (14 km)
Ceiling: at least 12,000 feet AGL
Clouds: few clouds at 9000 feet AGL
Present Weather: VCTS  (thunderstorm in vicinity)
SOME DATA ABOVE MAY BE INACCURATE!!!
"$" is an indication the sensor requires maintenance
KOCF 221610Z 19007KT 9SM VCTS FEW090 28/24 A3009 RMK AO2 LTG DSNT ALQDS TSB04 $

Conditions at: KOCF observed 22 July 2017  15:51 UTC
Temperature: 28.9°C (84°F)
Dewpoint: 23.9°C (75°F) [RH = 74%]
Pressure (altimeter): 30.09 inches Hg (1019.0 mb)
[Sea-level pressure: 1019.2 mb]
Winds: from the SSW (210 degrees) at 6 MPH (5 knots; 2.6 m/s)
Visibility: 10 or more miles (16+ km)
Ceiling: at least 12,000 feet AGL
Clouds: scattered clouds at 2500 feet AGL
scattered clouds at 10000 feet AGL
Present Weather:
SOME DATA ABOVE MAY BE INACCURATE!!!
"$" is an indication the sensor requires maintenance
KOCF 221551Z 21005KT 10SM SCT025 SCT100 29/24 A3009 RMK AO2 LTG DSNT NE AND S RAB18E31 SLP192 P0000 T02890239 $

Conditions at: KOCF observed 22 July 2017  14:58 UTC
Temperature: 29.0°C (84°F)
Dewpoint: 25.0°C (77°F) [RH = 79%]
Pressure (altimeter): 30.09 inches Hg (1019.0 mb)
Winds: from the SSW (210 degrees) at 8 MPH (7 knots; 3.6 m/s)
Visibility: 10 or more miles (16+ km)
Ceiling: at least 12,000 feet AGL
Clouds: scattered clouds at 2300 feet AGL
Present Weather:
SOME DATA ABOVE MAY BE INACCURATE!!!
"$" is an indication the sensor requires maintenance
KOCF 221458Z 21007KT 10SM SCT023 29/25 A3009 RMK AO2 $

Conditions at: KOCF observed 22 July 2017  14:51 UTC
Temperature: 29.4°C (85°F)
Dewpoint: 24.4°C (76°F) [RH = 75%]
Pressure (altimeter): 30.09 inches Hg (1019.0 mb)
[Sea-level pressure: 1019.2 mb]
Winds: from the SW (230 degrees) at 7 MPH (6 knots; 3.1 m/s)
Visibility: 10 or more miles (16+ km)
Ceiling: 2500 feet AGL
Clouds: broken clouds at 2500 feet AGL
Present Weather:
SOME DATA ABOVE MAY BE INACCURATE!!!
"$" is an indication the sensor requires maintenance
KOCF 221451Z 23006KT 10SM BKN025 29/24 A3009 RMK AO2 LTG DSNT S SLP192 T02940244 56001 $

Conditions at: KOCF observed 22 July 2017  14:46 UTC
Temperature: 29.0°C (84°F)
Dewpoint: 24.0°C (75°F) [RH = 74%]
Pressure (altimeter): 30.10 inches Hg (1019.4 mb)
Winds: from the SW (230 degrees) at 8 MPH (7 knots; 3.6 m/s)
Visibility: 10 or more miles (16+ km)
Ceiling: 2300 feet AGL
Clouds: broken clouds at 2300 feet AGL
broken clouds at 5500 feet AGL
Present Weather:
SOME DATA ABOVE MAY BE INACCURATE!!!
"$" is an indication the sensor requires maintenance
KOCF 221446Z 23007KT 10SM BKN023 BKN055 29/24 A3010 RMK AO2 LTG DSNT S AND SW $

Conditions at: KOCF observed 22 July 2017  13:51 UTC
Temperature: 28.9°C (84°F)
Dewpoint: 24.4°C (76°F) [RH = 77%]
Pressure (altimeter): 30.10 inches Hg (1019.4 mb)
[Sea-level pressure: 1019.2 mb]
Winds: from the S (180 degrees) at 6 MPH (5 knots; 2.6 m/s)
Visibility: 10 or more miles (16+ km)
Ceiling: at least 12,000 feet AGL
Clouds: few clouds at 3000 feet AGL
Present Weather:
SOME DATA ABOVE MAY BE INACCURATE!!!
"$" is an indication the sensor requires maintenance
KOCF 221351Z 18005KT 10SM FEW030 29/24 A3010 RMK AO2 SLP192 T02890244 $

Conditions at: KOCF observed 22 July 2017  12:51 UTC
Temperature: 26.7°C (80°F)
Dewpoint: 23.9°C (75°F) [RH = 85%]
Pressure (altimeter): 30.10 inches Hg (1019.4 mb)
[Sea-level pressure: 1019.3 mb]
Winds: from the SSW (200 degrees) at 6 MPH (5 knots; 2.6 m/s)
Visibility: 10 or more miles (16+ km)
Ceiling: at least 12,000 feet AGL
Clouds: sky clear below 12,000 feet AGL
Present Weather:
SOME DATA ABOVE MAY BE INACCURATE!!!
"$" is an indication the sensor requires maintenance
KOCF 221251Z 20005KT 10SM CLR 27/24 A3010 RMK AO2 LTG DSNT W SLP193 T02670239 $

Conditions at: KOCF observed 22 July 2017  11:51 UTC
Temperature: 23.9°C (75°F)
Dewpoint: 22.8°C (73°F) [RH = 94%]
Pressure (altimeter): 30.07 inches Hg (1018.4 mb)
[Sea-level pressure: 1018.4 mb]
Winds: from the S (170 degrees) at 5 MPH (4 knots; 2.1 m/s)
Visibility: 10 or more miles (16+ km)
Ceiling: at least 12,000 feet AGL
Clouds: sky clear below 12,000 feet AGL
Present Weather:
SOME DATA ABOVE MAY BE INACCURATE!!!
"$" is an indication the sensor requires maintenance
KOCF 221151Z 17004KT 10SM CLR 24/23 A3007 RMK AO2 SLP184 7//// T02390228 10239 20222 53015 $

Conditions at: KOCF observed 22 July 2017  10:51 UTC
Temperature: 22.2°C (72°F)
Dewpoint: 21.7°C (71°F) [RH = 97%]
Pressure (altimeter): 30.06 inches Hg (1018.0 mb)
[Sea-level pressure: 1017.9 mb]
Winds: calm
Visibility: 10 or more miles (16+ km)
Ceiling: at least 12,000 feet AGL
Clouds: sky clear below 12,000 feet AGL
Present Weather:
SOME DATA ABOVE MAY BE INACCURATE!!!
"$" is an indication the sensor requires maintenance
KOCF 221051Z 00000KT 10SM CLR 22/22 A3006 RMK AO2 SLP179 T02220217 $

Conditions at: KOCF observed 22 July 2017  09:51 UTC
Temperature: 22.8°C (73°F)
Dewpoint: 21.7°C (71°F) [RH = 94%]
Pressure (altimeter): 30.04 inches Hg (1017.4 mb)
[Sea-level pressure: 1017.3 mb]
Winds: from the S (180 degrees) at 3 MPH (3 knots; 1.6 m/s)
Visibility: 10 or more miles (16+ km)
Ceiling: at least 12,000 feet AGL
Clouds: sky clear below 12,000 feet AGL
Present Weather:
SOME DATA ABOVE MAY BE INACCURATE!!!
"$" is an indication the sensor requires maintenance
KOCF 220951Z AUTO 18003KT 10SM CLR 23/22 A3004 RMK AO2 SLP173 T02280217 $

Conditions at: KOCF observed 22 July 2017  08:51 UTC
Temperature: 22.8°C (73°F)
Dewpoint: 22.2°C (72°F) [RH = 96%]
Pressure (altimeter): 30.03 inches Hg (1017.0 mb)
[Sea-level pressure: 1016.9 mb]
Winds: from the S (180 degrees) at 3 MPH (3 knots; 1.6 m/s)
Visibility: 10 or more miles (16+ km)
Ceiling: at least 12,000 feet AGL
Clouds: sky clear below 12,000 feet AGL
Present Weather:
SOME DATA ABOVE MAY BE INACCURATE!!!
"$" is an indication the sensor requires maintenance
KOCF 220851Z AUTO 18003KT 10SM CLR 23/22 A3003 RMK AO2 SLP169 T02280222 55009 $